AWE458 KSAN-KLAS
Flight info
| Callsign | AWE458 |
|---|---|
| Flight time | N/A |
| Altitude | 29000 |
| Route | PADRZ2 CHKNN DCT SEBBY DCT YELAH DCT MISEN RNDRZ4 |
| Aircraft | A320/M-VGDW/C |
Departure
| Time | 2026-04-24 16:42 |
|---|---|
| Airport | San Diego International Airport (KSAN) |
Arrival
| Time | N/A |
|---|---|
| Airport | Harry Reid International Airport (KLAS) |
| Time | Latitude | Longitude | Altitude | Speed | Heading |
|---|---|---|---|---|---|
| 2026-04-24 16:22 | 32.73326 | -117.19648 | 27 ft | 0 kts | 171° |
| 2026-04-24 16:33 | 32.73335 | -117.19649 | 26 ft | 2 kts | 171° |
| 2026-04-24 16:34 | 32.73351 | -117.19652 | 26 ft | 2 kts | 171° |
| 2026-04-24 16:34 | 32.73367 | -117.19655 | 28 ft | 2 kts | 171° |
| 2026-04-24 16:34 | 32.73383 | -117.19661 | 27 ft | 2 kts | 151° |
| 2026-04-24 16:34 | 32.73393 | -117.19668 | 28 ft | 0 kts | 176° |
| 2026-04-24 16:35 | 32.73384 | -117.19662 | 27 ft | 3 kts | 146° |
| 2026-04-24 16:35 | 32.73384 | -117.19624 | 26 ft | 6 kts | 81° |
| 2026-04-24 16:36 | 32.73391 | -117.19558 | 27 ft | 10 kts | 89° |
| 2026-04-24 16:36 | 32.73373 | -117.19462 | 27 ft | 15 kts | 107° |
| 2026-04-24 16:36 | 32.73338 | -117.19322 | 25 ft | 21 kts | 105° |
| 2026-04-24 16:36 | 32.73292 | -117.19123 | 25 ft | 33 kts | 106° |
| 2026-04-24 16:37 | 32.73205 | -117.18779 | 30 ft | 52 kts | 107° |
| 2026-04-24 16:37 | 32.73158 | -117.18589 | 28 ft | 19 kts | 105° |
| 2026-04-24 16:37 | 32.73134 | -117.18481 | 26 ft | 21 kts | 106° |
| 2026-04-24 16:37 | 32.73079 | -117.18255 | 26 ft | 21 kts | 105° |
| 2026-04-24 16:38 | 32.73037 | -117.18075 | 25 ft | 22 kts | 105° |
| 2026-04-24 16:38 | 32.73002 | -117.17932 | 24 ft | 14 kts | 106° |
| 2026-04-24 16:38 | 32.72973 | -117.17819 | 22 ft | 14 kts | 108° |
| 2026-04-24 16:38 | 32.72949 | -117.17713 | 22 ft | 12 kts | 92° |
| 2026-04-24 16:39 | 32.72954 | -117.17681 | 23 ft | 0 kts | 76° |
| 2026-04-24 16:40 | 32.72958 | -117.17664 | 23 ft | 9 kts | 73° |
| 2026-04-24 16:41 | 32.72999 | -117.17607 | 26 ft | 8 kts | 11° |
| 2026-04-24 16:41 | 32.73037 | -117.17655 | 24 ft | 9 kts | 284° |
| 2026-04-24 16:41 | 32.73069 | -117.17792 | 23 ft | 33 kts | 286° |
| 2026-04-24 16:41 | 32.73198 | -117.18318 | 26 ft | 101 kts | 285° |
| 2026-04-24 16:42 | 32.73446 | -117.19337 | 99 ft | 146 kts | 285° |
| 2026-04-24 16:42 | 32.73740 | -117.20523 | 550 ft | 157 kts | 285° |
| 2026-04-24 16:42 | 32.74181 | -117.21729 | 1139 ft | 161 kts | 299° |
| 2026-04-24 16:42 | 32.74786 | -117.22831 | 1771 ft | 163 kts | 302° |
| 2026-04-24 16:43 | 32.75468 | -117.24010 | 1993 ft | 186 kts | 302° |
| 2026-04-24 16:43 | 32.76250 | -117.25365 | 2262 ft | 212 kts | 302° |
| 2026-04-24 16:43 | 32.77127 | -117.26893 | 2646 ft | 236 kts | 302° |
| 2026-04-24 16:43 | 32.78092 | -117.28590 | 3205 ft | 258 kts | 303° |
| 2026-04-24 16:44 | 32.79105 | -117.30380 | 4113 ft | 263 kts | 303° |
| 2026-04-24 16:44 | 32.80140 | -117.32189 | 5150 ft | 265 kts | 305° |
| 2026-04-24 16:44 | 32.81241 | -117.33957 | 6134 ft | 268 kts | 306° |
| 2026-04-24 16:44 | 32.82393 | -117.35726 | 7047 ft | 272 kts | 307° |
| 2026-04-24 16:45 | 32.83570 | -117.37513 | 7934 ft | 276 kts | 307° |
| 2026-04-24 16:45 | 32.84762 | -117.39325 | 8830 ft | 280 kts | 306° |
| 2026-04-24 16:45 | 32.85967 | -117.41167 | 9723 ft | 284 kts | 306° |
| 2026-04-24 16:45 | 32.87184 | -117.43042 | 10557 ft | 287 kts | 305° |
| 2026-04-24 16:46 | 32.88408 | -117.44939 | 11372 ft | 292 kts | 305° |
| 2026-04-24 16:46 | 32.89691 | -117.46939 | 11675 ft | 316 kts | 305° |
| 2026-04-24 16:46 | 32.91072 | -117.49096 | 11898 ft | 339 kts | 305° |
| 2026-04-24 16:46 | 32.92552 | -117.51406 | 12070 ft | 362 kts | 305° |
| 2026-04-24 16:47 | 32.94110 | -117.53832 | 12564 ft | 372 kts | 305° |
| 2026-04-24 16:47 | 32.95692 | -117.56290 | 13266 ft | 376 kts | 305° |
| 2026-04-24 16:47 | 32.97288 | -117.58766 | 13993 ft | 378 kts | 305° |
| 2026-04-24 16:47 | 32.98894 | -117.61263 | 14676 ft | 380 kts | 304° |
| 2026-04-24 16:48 | 33.00500 | -117.63770 | 15365 ft | 382 kts | 304° |
| 2026-04-24 16:48 | 33.02113 | -117.66291 | 16051 ft | 383 kts | 304° |
| 2026-04-24 16:48 | 33.03733 | -117.68821 | 16739 ft | 385 kts | 303° |
| 2026-04-24 16:48 | 33.05331 | -117.71316 | 17392 ft | 386 kts | 303° |
| 2026-04-24 16:49 | 33.07152 | -117.73715 | 18045 ft | 393 kts | 312° |
| 2026-04-24 16:49 | 33.09239 | -117.75854 | 18612 ft | 396 kts | 314° |
| 2026-04-24 16:49 | 33.11344 | -117.77990 | 19120 ft | 399 kts | 314° |
| 2026-04-24 16:49 | 33.13463 | -117.80146 | 19612 ft | 401 kts | 314° |
| 2026-04-24 16:50 | 33.14905 | -117.81614 | 19941 ft | 403 kts | 314° |
| 2026-04-24 16:50 | 33.17744 | -117.84505 | 20560 ft | 406 kts | 314° |
| 2026-04-24 16:50 | 33.19896 | -117.86702 | 21028 ft | 409 kts | 314° |
| 2026-04-24 16:50 | 33.22082 | -117.88892 | 21470 ft | 411 kts | 314° |
| 2026-04-24 16:51 | 33.24301 | -117.91063 | 21894 ft | 414 kts | 315° |
| 2026-04-24 16:51 | 33.26549 | -117.93237 | 22312 ft | 417 kts | 315° |
| 2026-04-24 16:51 | 33.28815 | -117.95422 | 22724 ft | 419 kts | 314° |
| 2026-04-24 16:51 | 33.31088 | -117.97620 | 23113 ft | 421 kts | 314° |
| 2026-04-24 16:52 | 33.33367 | -117.99831 | 23493 ft | 423 kts | 314° |
| 2026-04-24 16:52 | 33.35658 | -118.02062 | 23832 ft | 425 kts | 314° |
| 2026-04-24 16:52 | 33.37954 | -118.04305 | 24146 ft | 427 kts | 314° |
| 2026-04-24 16:52 | 33.40261 | -118.06565 | 24480 ft | 429 kts | 314° |
| 2026-04-24 16:53 | 33.42574 | -118.08835 | 24783 ft | 430 kts | 314° |
| 2026-04-24 16:53 | 33.44887 | -118.11112 | 25073 ft | 431 kts | 314° |
| 2026-04-24 16:53 | 33.47178 | -118.13370 | 25347 ft | 433 kts | 314° |
| 2026-04-24 16:53 | 33.49514 | -118.15670 | 25631 ft | 435 kts | 314° |
| 2026-04-24 16:54 | 33.51856 | -118.17969 | 25888 ft | 436 kts | 314° |
| 2026-04-24 16:54 | 33.54207 | -118.20281 | 26140 ft | 438 kts | 314° |
| 2026-04-24 16:54 | 33.56595 | -118.22574 | 26370 ft | 443 kts | 317° |
| 2026-04-24 16:54 | 33.59251 | -118.24516 | 26627 ft | 453 kts | 326° |
| 2026-04-24 16:55 | 33.62135 | -118.26113 | 26836 ft | 457 kts | 328° |
| 2026-04-24 16:55 | 33.65025 | -118.27696 | 27047 ft | 457 kts | 328° |
| 2026-04-24 16:55 | 33.67990 | -118.29129 | 27313 ft | 465 kts | 336° |
| 2026-04-24 16:55 | 33.71231 | -118.29744 | 27587 ft | 481 kts | 351° |
| 2026-04-24 16:56 | 33.74603 | -118.29323 | 27855 ft | 497 kts | 7° |
| 2026-04-24 16:56 | 33.77877 | -118.27705 | 28094 ft | 515 kts | 25° |
| 2026-04-24 16:56 | 33.80708 | -118.25041 | 28345 ft | 528 kts | 41° |
| 2026-04-24 16:56 | 33.82789 | -118.21975 | 28501 ft | 535 kts | 50° |